sensor_id;sensor_type;location;lat;lon;timestamp;P1;durP1;ratioP1;P2;durP2;ratioP2
24337;SDS011;12457;50.832;4.346;2022-08-19T00:01:27;29.70;;;20.27;;
24337;SDS011;12457;50.832;4.346;2022-08-19T00:03:56;27.88;;;20.75;;
24337;SDS011;12457;50.832;4.346;2022-08-19T00:06:27;30.23;;;22.73;;
24337;SDS011;12457;50.832;4.346;2022-08-19T00:08:54;30.70;;;23.35;;
24337;SDS011;12457;50.832;4.346;2022-08-19T00:11:21;32.88;;;23.90;;
24337;SDS011;12457;50.832;4.346;2022-08-19T00:13:47;35.08;;;25.90;;
24337;SDS011;12457;50.832;4.346;2022-08-19T00:16:15;38.35;;;25.85;;
24337;SDS011;12457;50.832;4.346;2022-08-19T00:18:44;39.10;;;28.40;;
24337;SDS011;12457;50.832;4.346;2022-08-19T00:21:10;37.22;;;28.48;;
24337;SDS011;12457;50.832;4.346;2022-08-19T00:23:36;42.67;;;28.90;;
24337;SDS011;12457;50.832;4.346;2022-08-19T00:26:05;39.97;;;28.73;;
24337;SDS011;12457;50.832;4.346;2022-08-19T00:28:32;54.25;;;35.25;;
24337;SDS011;12457;50.832;4.346;2022-08-19T00:31:00;53.25;;;36.13;;
24337;SDS011;12457;50.832;4.346;2022-08-19T00:33:28;61.90;;;39.92;;
24337;SDS011;12457;50.832;4.346;2022-08-19T00:35:57;54.10;;;35.85;;
24337;SDS011;12457;50.832;4.346;2022-08-19T00:38:27;64.32;;;40.53;;
24337;SDS011;12457;50.832;4.346;2022-08-19T00:40:53;61.45;;;40.10;;
24337;SDS011;12457;50.832;4.346;2022-08-19T00:43:20;65.40;;;40.83;;
24337;SDS011;12457;50.832;4.346;2022-08-19T00:45:48;59.63;;;41.00;;
24337;SDS011;12457;50.832;4.346;2022-08-19T00:48:15;62.15;;;39.65;;
24337;SDS011;12457;50.832;4.346;2022-08-19T00:50:41;59.75;;;39.47;;
24337;SDS011;12457;50.832;4.346;2022-08-19T00:53:10;67.57;;;43.45;;
24337;SDS011;12457;50.832;4.346;2022-08-19T00:55:38;72.05;;;44.33;;
24337;SDS011;12457;50.832;4.346;2022-08-19T00:58:07;67.82;;;41.83;;
24337;SDS011;12457;50.832;4.346;2022-08-19T01:00:35;67.25;;;41.50;;
24337;SDS011;12457;50.832;4.346;2022-08-19T01:03:06;62.33;;;40.72;;
24337;SDS011;12457;50.832;4.346;2022-08-19T01:05:34;58.15;;;41.15;;
24337;SDS011;12457;50.832;4.346;2022-08-19T01:08:02;63.78;;;42.15;;
24337;SDS011;12457;50.832;4.346;2022-08-19T01:10:31;62.22;;;42.13;;
24337;SDS011;12457;50.832;4.346;2022-08-19T01:13:00;66.20;;;44.20;;
24337;SDS011;12457;50.832;4.346;2022-08-19T01:15:29;65.43;;;40.88;;
24337;SDS011;12457;50.832;4.346;2022-08-19T01:18:00;59.90;;;40.05;;
24337;SDS011;12457;50.832;4.346;2022-08-19T01:20:33;53.80;;;37.65;;
24337;SDS011;12457;50.832;4.346;2022-08-19T01:22:59;56.58;;;38.38;;
24337;SDS011;12457;50.832;4.346;2022-08-19T01:25:38;53.95;;;36.08;;
24337;SDS011;12457;50.832;4.346;2022-08-19T01:28:08;52.90;;;35.75;;
24337;SDS011;12457;50.832;4.346;2022-08-19T01:30:42;57.83;;;35.83;;
24337;SDS011;12457;50.832;4.346;2022-08-19T01:33:08;49.58;;;34.15;;
24337;SDS011;12457;50.832;4.346;2022-08-19T01:35:34;48.95;;;33.60;;
24337;SDS011;12457;50.832;4.346;2022-08-19T01:38:02;54.78;;;35.95;;
24337;SDS011;12457;50.832;4.346;2022-08-19T01:40:32;50.58;;;35.15;;
24337;SDS011;12457;50.832;4.346;2022-08-19T01:42:59;49.38;;;33.70;;
24337;SDS011;12457;50.832;4.346;2022-08-19T01:45:26;46.90;;;33.05;;
24337;SDS011;12457;50.832;4.346;2022-08-19T01:47:53;44.05;;;32.42;;
24337;SDS011;12457;50.832;4.346;2022-08-19T01:50:18;48.22;;;33.05;;
24337;SDS011;12457;50.832;4.346;2022-08-19T01:52:44;46.70;;;32.40;;
24337;SDS011;12457;50.832;4.346;2022-08-19T01:55:12;49.63;;;33.58;;
24337;SDS011;12457;50.832;4.346;2022-08-19T01:57:41;48.33;;;32.97;;
24337;SDS011;12457;50.832;4.346;2022-08-19T02:00:10;46.22;;;33.10;;
24337;SDS011;12457;50.832;4.346;2022-08-19T02:02:39;51.88;;;33.72;;
24337;SDS011;12457;50.832;4.346;2022-08-19T02:05:04;44.10;;;30.60;;
24337;SDS011;12457;50.832;4.346;2022-08-19T02:07:31;44.13;;;29.13;;
24337;SDS011;12457;50.832;4.346;2022-08-19T02:09:57;38.85;;;27.90;;
24337;SDS011;12457;50.832;4.346;2022-08-19T02:12:23;40.60;;;27.13;;
24337;SDS011;12457;50.832;4.346;2022-08-19T02:14:48;38.95;;;27.45;;
24337;SDS011;12457;50.832;4.346;2022-08-19T02:17:14;35.08;;;27.58;;
24337;SDS011;12457;50.832;4.346;2022-08-19T02:19:40;46.42;;;30.63;;
24337;SDS011;12457;50.832;4.346;2022-08-19T02:22:05;45.65;;;33.72;;
24337;SDS011;12457;50.832;4.346;2022-08-19T02:24:31;43.50;;;32.05;;
24337;SDS011;12457;50.832;4.346;2022-08-19T02:26:56;44.20;;;32.95;;
24337;SDS011;12457;50.832;4.346;2022-08-19T02:29:23;49.88;;;31.00;;
24337;SDS011;12457;50.832;4.346;2022-08-19T02:31:49;45.22;;;31.77;;
24337;SDS011;12457;50.832;4.346;2022-08-19T02:34:15;46.00;;;31.27;;
24337;SDS011;12457;50.832;4.346;2022-08-19T02:36:42;43.45;;;30.50;;
24337;SDS011;12457;50.832;4.346;2022-08-19T02:39:07;43.95;;;31.52;;
24337;SDS011;12457;50.832;4.346;2022-08-19T02:41:34;45.90;;;30.98;;
24337;SDS011;12457;50.832;4.346;2022-08-19T02:44:00;42.05;;;30.23;;
24337;SDS011;12457;50.832;4.346;2022-08-19T02:46:29;49.50;;;31.17;;
24337;SDS011;12457;50.832;4.346;2022-08-19T02:48:57;41.90;;;30.23;;
24337;SDS011;12457;50.832;4.346;2022-08-19T02:51:26;44.92;;;29.35;;
24337;SDS011;12457;50.832;4.346;2022-08-19T02:53:54;44.97;;;31.40;;
24337;SDS011;12457;50.832;4.346;2022-08-19T02:56:21;48.92;;;32.10;;
24337;SDS011;12457;50.832;4.346;2022-08-19T02:58:49;43.63;;;31.05;;
24337;SDS011;12457;50.832;4.346;2022-08-19T03:03:51;36.65;;;26.63;;
24337;SDS011;12457;50.832;4.346;2022-08-19T03:06:17;42.78;;;25.98;;
24337;SDS011;12457;50.832;4.346;2022-08-19T03:08:43;41.47;;;27.48;;
24337;SDS011;12457;50.832;4.346;2022-08-19T03:11:17;45.35;;;27.23;;
24337;SDS011;12457;50.832;4.346;2022-08-19T03:13:45;42.22;;;26.95;;
24337;SDS011;12457;50.832;4.346;2022-08-19T03:16:12;42.95;;;27.25;;
24337;SDS011;12457;50.832;4.346;2022-08-19T03:18:37;38.70;;;26.38;;
24337;SDS011;12457;50.832;4.346;2022-08-19T03:21:03;41.60;;;27.92;;
24337;SDS011;12457;50.832;4.346;2022-08-19T03:23:29;47.00;;;29.10;;
24337;SDS011;12457;50.832;4.346;2022-08-19T03:25:57;40.83;;;26.52;;
24337;SDS011;12457;50.832;4.346;2022-08-19T03:28:22;42.10;;;26.92;;
24337;SDS011;12457;50.832;4.346;2022-08-19T03:30:58;41.45;;;25.80;;
24337;SDS011;12457;50.832;4.346;2022-08-19T03:33:26;38.72;;;24.50;;
24337;SDS011;12457;50.832;4.346;2022-08-19T03:36:26;38.78;;;24.83;;
24337;SDS011;12457;50.832;4.346;2022-08-19T03:38:54;35.35;;;25.48;;
24337;SDS011;12457;50.832;4.346;2022-08-19T03:41:22;46.20;;;24.00;;
24337;SDS011;12457;50.832;4.346;2022-08-19T03:43:49;37.15;;;23.58;;
24337;SDS011;12457;50.832;4.346;2022-08-19T03:46:17;39.45;;;25.13;;
24337;SDS011;12457;50.832;4.346;2022-08-19T03:48:47;44.75;;;27.27;;
24337;SDS011;12457;50.832;4.346;2022-08-19T03:51:18;44.63;;;27.63;;
24337;SDS011;12457;50.832;4.346;2022-08-19T03:53:47;38.70;;;25.52;;
24337;SDS011;12457;50.832;4.346;2022-08-19T03:56:13;41.42;;;26.52;;
24337;SDS011;12457;50.832;4.346;2022-08-19T03:58:40;46.35;;;28.95;;
24337;SDS011;12457;50.832;4.346;2022-08-19T04:01:07;43.40;;;27.50;;
24337;SDS011;12457;50.832;4.346;2022-08-19T04:03:38;39.83;;;27.40;;
24337;SDS011;12457;50.832;4.346;2022-08-19T04:06:14;42.10;;;26.55;;
24337;SDS011;12457;50.832;4.346;2022-08-19T04:08:42;47.60;;;26.33;;
24337;SDS011;12457;50.832;4.346;2022-08-19T04:11:11;47.05;;;26.80;;
24337;SDS011;12457;50.832;4.346;2022-08-19T04:13:39;43.88;;;27.58;;
24337;SDS011;12457;50.832;4.346;2022-08-19T04:16:05;44.88;;;26.45;;
24337;SDS011;12457;50.832;4.346;2022-08-19T04:18:32;40.90;;;26.40;;
24337;SDS011;12457;50.832;4.346;2022-08-19T04:20:58;46.05;;;26.02;;
24337;SDS011;12457;50.832;4.346;2022-08-19T04:23:26;43.83;;;25.58;;
24337;SDS011;12457;50.832;4.346;2022-08-19T04:25:53;36.38;;;23.30;;
24337;SDS011;12457;50.832;4.346;2022-08-19T04:28:19;36.85;;;23.98;;
24337;SDS011;12457;50.832;4.346;2022-08-19T04:30:46;34.83;;;23.58;;
24337;SDS011;12457;50.832;4.346;2022-08-19T04:33:14;35.67;;;23.67;;
24337;SDS011;12457;50.832;4.346;2022-08-19T04:35:44;38.33;;;22.88;;
24337;SDS011;12457;50.832;4.346;2022-08-19T04:38:13;44.17;;;23.23;;
24337;SDS011;12457;50.832;4.346;2022-08-19T04:40:41;40.58;;;21.85;;
24337;SDS011;12457;50.832;4.346;2022-08-19T04:43:31;37.47;;;22.02;;
24337;SDS011;12457;50.832;4.346;2022-08-19T04:45:57;33.53;;;21.23;;
24337;SDS011;12457;50.832;4.346;2022-08-19T04:48:23;34.88;;;21.63;;
24337;SDS011;12457;50.832;4.346;2022-08-19T04:50:57;35.08;;;20.98;;
24337;SDS011;12457;50.832;4.346;2022-08-19T04:53:24;40.47;;;21.90;;
24337;SDS011;12457;50.832;4.346;2022-08-19T04:55:58;36.83;;;21.55;;
24337;SDS011;12457;50.832;4.346;2022-08-19T04:58:28;40.83;;;22.10;;
24337;SDS011;12457;50.832;4.346;2022-08-19T05:00:54;31.63;;;20.38;;
24337;SDS011;12457;50.832;4.346;2022-08-19T05:03:20;37.22;;;20.85;;
24337;SDS011;12457;50.832;4.346;2022-08-19T05:05:47;39.95;;;20.58;;
24337;SDS011;12457;50.832;4.346;2022-08-19T05:08:14;36.80;;;19.63;;
24337;SDS011;12457;50.832;4.346;2022-08-19T05:10:45;38.80;;;21.15;;
24337;SDS011;12457;50.832;4.346;2022-08-19T05:13:13;33.83;;;19.85;;
24337;SDS011;12457;50.832;4.346;2022-08-19T05:15:39;37.85;;;20.02;;
24337;SDS011;12457;50.832;4.346;2022-08-19T05:18:05;39.15;;;19.40;;
24337;SDS011;12457;50.832;4.346;2022-08-19T05:20:49;34.70;;;19.13;;
24337;SDS011;12457;50.832;4.346;2022-08-19T05:23:34;27.73;;;17.58;;
24337;SDS011;12457;50.832;4.346;2022-08-19T05:25:59;31.40;;;17.27;;
24337;SDS011;12457;50.832;4.346;2022-08-19T05:28:25;32.65;;;17.30;;
24337;SDS011;12457;50.832;4.346;2022-08-19T05:30:52;29.38;;;17.90;;
24337;SDS011;12457;50.832;4.346;2022-08-19T05:33:20;31.67;;;18.10;;
24337;SDS011;12457;50.832;4.346;2022-08-19T05:35:47;27.98;;;16.42;;
24337;SDS011;12457;50.832;4.346;2022-08-19T05:38:14;32.17;;;17.65;;
24337;SDS011;12457;50.832;4.346;2022-08-19T05:40:40;26.73;;;16.13;;
24337;SDS011;12457;50.832;4.346;2022-08-19T05:43:07;29.25;;;16.00;;
24337;SDS011;12457;50.832;4.346;2022-08-19T05:45:37;22.63;;;15.75;;
24337;SDS011;12457;50.832;4.346;2022-08-19T05:48:04;25.83;;;15.68;;
24337;SDS011;12457;50.832;4.346;2022-08-19T05:50:30;27.75;;;14.15;;
24337;SDS011;12457;50.832;4.346;2022-08-19T05:52:56;24.02;;;14.90;;
24337;SDS011;12457;50.832;4.346;2022-08-19T05:55:21;23.67;;;14.20;;
24337;SDS011;12457;50.832;4.346;2022-08-19T05:57:47;22.40;;;14.32;;
24337;SDS011;12457;50.832;4.346;2022-08-19T06:00:13;22.38;;;13.07;;
24337;SDS011;12457;50.832;4.346;2022-08-19T06:02:39;22.13;;;12.68;;
24337;SDS011;12457;50.832;4.346;2022-08-19T06:05:06;23.25;;;13.43;;
24337;SDS011;12457;50.832;4.346;2022-08-19T06:07:37;27.67;;;12.13;;
24337;SDS011;12457;50.832;4.346;2022-08-19T06:10:05;21.05;;;11.35;;
24337;SDS011;12457;50.832;4.346;2022-08-19T06:12:32;17.30;;;10.75;;
24337;SDS011;12457;50.832;4.346;2022-08-19T06:15:00;19.67;;;10.93;;
24337;SDS011;12457;50.832;4.346;2022-08-19T06:17:31;15.70;;;9.27;;
24337;SDS011;12457;50.832;4.346;2022-08-19T06:19:59;17.08;;;8.80;;
24337;SDS011;12457;50.832;4.346;2022-08-19T06:22:26;21.48;;;9.23;;
24337;SDS011;12457;50.832;4.346;2022-08-19T06:24:53;20.25;;;9.15;;
24337;SDS011;12457;50.832;4.346;2022-08-19T06:27:19;18.33;;;9.95;;
24337;SDS011;12457;50.832;4.346;2022-08-19T06:29:48;17.80;;;8.95;;
24337;SDS011;12457;50.832;4.346;2022-08-19T06:32:15;22.58;;;9.18;;
24337;SDS011;12457;50.832;4.346;2022-08-19T06:34:41;26.25;;;8.98;;
24337;SDS011;12457;50.832;4.346;2022-08-19T06:37:07;18.38;;;8.30;;
24337;SDS011;12457;50.832;4.346;2022-08-19T06:39:35;14.20;;;8.38;;
24337;SDS011;12457;50.832;4.346;2022-08-19T06:42:06;19.80;;;7.93;;
24337;SDS011;12457;50.832;4.346;2022-08-19T06:44:41;16.45;;;7.47;;
24337;SDS011;12457;50.832;4.346;2022-08-19T06:47:10;24.23;;;8.25;;
24337;SDS011;12457;50.832;4.346;2022-08-19T06:49:59;15.68;;;8.70;;
24337;SDS011;12457;50.832;4.346;2022-08-19T06:52:37;20.55;;;8.20;;
24337;SDS011;12457;50.832;4.346;2022-08-19T06:55:06;16.80;;;8.43;;
24337;SDS011;12457;50.832;4.346;2022-08-19T06:57:32;40.72;;;13.35;;
24337;SDS011;12457;50.832;4.346;2022-08-19T07:00:04;26.02;;;10.40;;
24337;SDS011;12457;50.832;4.346;2022-08-19T07:02:39;19.10;;;9.57;;
24337;SDS011;12457;50.832;4.346;2022-08-19T07:05:06;20.00;;;9.13;;
24337;SDS011;12457;50.832;4.346;2022-08-19T07:07:32;20.90;;;8.35;;
24337;SDS011;12457;50.832;4.346;2022-08-19T07:09:58;15.15;;;9.07;;
24337;SDS011;12457;50.832;4.346;2022-08-19T07:12:23;20.42;;;8.77;;
24337;SDS011;12457;50.832;4.346;2022-08-19T07:14:49;16.50;;;8.68;;
24337;SDS011;12457;50.832;4.346;2022-08-19T07:17:15;16.30;;;8.63;;
24337;SDS011;12457;50.832;4.346;2022-08-19T07:19:41;18.65;;;8.30;;
24337;SDS011;12457;50.832;4.346;2022-08-19T07:22:08;19.00;;;9.13;;
24337;SDS011;12457;50.832;4.346;2022-08-19T07:24:35;16.13;;;8.20;;
24337;SDS011;12457;50.832;4.346;2022-08-19T07:27:03;17.77;;;8.32;;
24337;SDS011;12457;50.832;4.346;2022-08-19T07:29:37;15.02;;;7.80;;
24337;SDS011;12457;50.832;4.346;2022-08-19T07:32:15;17.70;;;7.05;;
24337;SDS011;12457;50.832;4.346;2022-08-19T07:34:46;12.20;;;6.88;;
24337;SDS011;12457;50.832;4.346;2022-08-19T07:37:17;12.82;;;6.90;;
24337;SDS011;12457;50.832;4.346;2022-08-19T07:39:46;14.95;;;8.48;;
24337;SDS011;12457;50.832;4.346;2022-08-19T07:42:17;16.90;;;7.47;;
24337;SDS011;12457;50.832;4.346;2022-08-19T07:44:48;16.13;;;7.53;;
24337;SDS011;12457;50.832;4.346;2022-08-19T07:47:20;13.75;;;7.82;;
24337;SDS011;12457;50.832;4.346;2022-08-19T07:49:45;13.30;;;6.78;;
24337;SDS011;12457;50.832;4.346;2022-08-19T07:52:12;13.43;;;7.00;;
24337;SDS011;12457;50.832;4.346;2022-08-19T07:54:40;10.57;;;7.25;;
24337;SDS011;12457;50.832;4.346;2022-08-19T07:57:06;15.65;;;6.55;;
24337;SDS011;12457;50.832;4.346;2022-08-19T07:59:32;15.07;;;7.47;;
24337;SDS011;12457;50.832;4.346;2022-08-19T08:02:03;14.52;;;7.35;;
24337;SDS011;12457;50.832;4.346;2022-08-19T08:04:30;13.82;;;6.90;;
24337;SDS011;12457;50.832;4.346;2022-08-19T08:07:14;10.73;;;6.18;;
24337;SDS011;12457;50.832;4.346;2022-08-19T08:10:08;16.60;;;6.53;;
24337;SDS011;12457;50.832;4.346;2022-08-19T08:12:39;12.45;;;5.97;;
24337;SDS011;12457;50.832;4.346;2022-08-19T08:15:20;12.40;;;5.32;;
24337;SDS011;12457;50.832;4.346;2022-08-19T08:17:49;9.02;;;5.97;;
24337;SDS011;12457;50.832;4.346;2022-08-19T08:20:23;13.98;;;5.95;;
24337;SDS011;12457;50.832;4.346;2022-08-19T08:22:49;10.75;;;5.65;;
24337;SDS011;12457;50.832;4.346;2022-08-19T08:25:36;11.85;;;5.45;;
24337;SDS011;12457;50.832;4.346;2022-08-19T08:28:03;12.65;;;6.05;;
24337;SDS011;12457;50.832;4.346;2022-08-19T08:30:33;12.10;;;5.28;;
24337;SDS011;12457;50.832;4.346;2022-08-19T08:33:00;8.75;;;5.38;;
24337;SDS011;12457;50.832;4.346;2022-08-19T08:35:26;12.35;;;6.20;;
24337;SDS011;12457;50.832;4.346;2022-08-19T08:37:53;10.35;;;5.75;;
24337;SDS011;12457;50.832;4.346;2022-08-19T08:40:38;14.75;;;5.32;;
24337;SDS011;12457;50.832;4.346;2022-08-19T08:43:11;10.30;;;5.47;;
24337;SDS011;12457;50.832;4.346;2022-08-19T08:48:47;15.57;;;5.50;;
24337;SDS011;12457;50.832;4.346;2022-08-19T08:51:20;13.10;;;5.72;;
24337;SDS011;12457;50.832;4.346;2022-08-19T08:53:51;11.63;;;5.15;;
24337;SDS011;12457;50.832;4.346;2022-08-19T08:56:18;13.00;;;5.75;;
24337;SDS011;12457;50.832;4.346;2022-08-19T08:58:48;9.75;;;5.15;;
24337;SDS011;12457;50.832;4.346;2022-08-19T09:01:26;10.00;;;5.57;;
24337;SDS011;12457;50.832;4.346;2022-08-19T09:03:52;11.35;;;5.15;;
24337;SDS011;12457;50.832;4.346;2022-08-19T09:09:16;7.00;;;4.85;;
24337;SDS011;12457;50.832;4.346;2022-08-19T09:14:51;7.97;;;4.80;;
24337;SDS011;12457;50.832;4.346;2022-08-19T09:17:45;7.45;;;4.35;;
24337;SDS011;12457;50.832;4.346;2022-08-19T09:20:29;9.98;;;4.78;;
24337;SDS011;12457;50.832;4.346;2022-08-19T09:23:04;9.15;;;4.40;;
24337;SDS011;12457;50.832;4.346;2022-08-19T09:26:19;8.25;;;4.53;;
24337;SDS011;12457;50.832;4.346;2022-08-19T09:28:49;10.10;;;5.20;;
24337;SDS011;12457;50.832;4.346;2022-08-19T09:31:18;7.72;;;4.95;;
24337;SDS011;12457;50.832;4.346;2022-08-19T09:33:49;13.05;;;5.78;;
24337;SDS011;12457;50.832;4.346;2022-08-19T09:36:22;9.18;;;5.35;;
24337;SDS011;12457;50.832;4.346;2022-08-19T09:38:50;15.90;;;5.25;;
24337;SDS011;12457;50.832;4.346;2022-08-19T09:41:17;18.58;;;5.35;;
24337;SDS011;12457;50.832;4.346;2022-08-19T09:43:46;9.05;;;5.55;;
24337;SDS011;12457;50.832;4.346;2022-08-19T09:46:14;8.18;;;4.97;;
24337;SDS011;12457;50.832;4.346;2022-08-19T09:48:41;7.72;;;5.10;;
24337;SDS011;12457;50.832;4.346;2022-08-19T09:51:08;8.75;;;5.07;;
24337;SDS011;12457;50.832;4.346;2022-08-19T09:53:36;6.88;;;4.32;;
24337;SDS011;12457;50.832;4.346;2022-08-19T09:56:03;7.18;;;4.50;;
24337;SDS011;12457;50.832;4.346;2022-08-19T09:58:30;9.48;;;4.40;;
24337;SDS011;12457;50.832;4.346;2022-08-19T10:00:57;11.35;;;4.20;;
24337;SDS011;12457;50.832;4.346;2022-08-19T10:03:25;11.05;;;4.82;;
24337;SDS011;12457;50.832;4.346;2022-08-19T10:08:41;7.03;;;4.45;;
24337;SDS011;12457;50.832;4.346;2022-08-19T10:11:10;8.80;;;4.63;;
24337;SDS011;12457;50.832;4.346;2022-08-19T10:13:42;7.53;;;4.63;;
24337;SDS011;12457;50.832;4.346;2022-08-19T10:16:11;8.45;;;4.63;;
24337;SDS011;12457;50.832;4.346;2022-08-19T10:18:45;8.43;;;4.85;;
24337;SDS011;12457;50.832;4.346;2022-08-19T10:21:32;7.70;;;4.47;;
24337;SDS011;12457;50.832;4.346;2022-08-19T10:24:01;12.98;;;4.90;;
24337;SDS011;12457;50.832;4.346;2022-08-19T10:26:30;7.20;;;5.00;;
24337;SDS011;12457;50.832;4.346;2022-08-19T10:29:14;8.35;;;5.10;;
24337;SDS011;12457;50.832;4.346;2022-08-19T10:31:44;9.27;;;6.07;;
24337;SDS011;12457;50.832;4.346;2022-08-19T10:34:12;10.00;;;6.40;;
24337;SDS011;12457;50.832;4.346;2022-08-19T10:36:40;10.63;;;6.15;;
24337;SDS011;12457;50.832;4.346;2022-08-19T10:39:09;14.05;;;6.82;;
24337;SDS011;12457;50.832;4.346;2022-08-19T10:41:37;9.82;;;6.00;;
24337;SDS011;12457;50.832;4.346;2022-08-19T10:46:50;12.30;;;6.40;;
24337;SDS011;12457;50.832;4.346;2022-08-19T10:49:20;8.32;;;5.82;;
24337;SDS011;12457;50.832;4.346;2022-08-19T10:51:49;11.18;;;6.63;;
24337;SDS011;12457;50.832;4.346;2022-08-19T10:54:33;12.48;;;7.20;;
24337;SDS011;12457;50.832;4.346;2022-08-19T10:57:26;10.55;;;7.47;;
24337;SDS011;12457;50.832;4.346;2022-08-19T10:59:58;9.68;;;7.22;;
24337;SDS011;12457;50.832;4.346;2022-08-19T11:02:26;11.30;;;7.30;;
24337;SDS011;12457;50.832;4.346;2022-08-19T11:04:53;10.68;;;7.78;;
24337;SDS011;12457;50.832;4.346;2022-08-19T11:07:25;12.60;;;7.60;;
24337;SDS011;12457;50.832;4.346;2022-08-19T11:09:53;9.52;;;6.43;;
24337;SDS011;12457;50.832;4.346;2022-08-19T11:12:24;9.85;;;6.60;;
24337;SDS011;12457;50.832;4.346;2022-08-19T11:14:52;9.80;;;6.13;;
24337;SDS011;12457;50.832;4.346;2022-08-19T11:17:21;8.18;;;5.50;;
24337;SDS011;12457;50.832;4.346;2022-08-19T11:19:51;10.13;;;6.68;;
24337;SDS011;12457;50.832;4.346;2022-08-19T11:22:22;9.18;;;7.80;;
24337;SDS011;12457;50.832;4.346;2022-08-19T11:24:50;15.43;;;9.40;;
24337;SDS011;12457;50.832;4.346;2022-08-19T11:27:17;9.52;;;8.40;;
24337;SDS011;12457;50.832;4.346;2022-08-19T11:29:46;10.82;;;7.85;;
24337;SDS011;12457;50.832;4.346;2022-08-19T11:32:21;12.23;;;7.57;;
24337;SDS011;12457;50.832;4.346;2022-08-19T11:34:47;10.50;;;8.02;;
24337;SDS011;12457;50.832;4.346;2022-08-19T11:37:12;11.13;;;7.15;;
24337;SDS011;12457;50.832;4.346;2022-08-19T11:39:38;11.05;;;7.25;;
24337;SDS011;12457;50.832;4.346;2022-08-19T11:42:07;12.00;;;7.32;;
24337;SDS011;12457;50.832;4.346;2022-08-19T11:44:51;10.38;;;7.55;;
24337;SDS011;12457;50.832;4.346;2022-08-19T11:47:18;11.38;;;7.90;;
24337;SDS011;12457;50.832;4.346;2022-08-19T11:49:49;13.15;;;7.00;;
24337;SDS011;12457;50.832;4.346;2022-08-19T11:52:16;9.70;;;6.50;;
24337;SDS011;12457;50.832;4.346;2022-08-19T11:54:44;7.88;;;5.80;;
24337;SDS011;12457;50.832;4.346;2022-08-19T11:57:10;10.52;;;5.80;;
24337;SDS011;12457;50.832;4.346;2022-08-19T11:59:35;16.25;;;6.32;;
24337;SDS011;12457;50.832;4.346;2022-08-19T12:02:01;9.20;;;5.07;;
24337;SDS011;12457;50.832;4.346;2022-08-19T12:04:27;9.23;;;5.63;;
24337;SDS011;12457;50.832;4.346;2022-08-19T12:06:53;9.25;;;4.32;;
24337;SDS011;12457;50.832;4.346;2022-08-19T12:09:18;8.95;;;4.47;;
24337;SDS011;12457;50.832;4.346;2022-08-19T12:11:44;7.72;;;5.90;;
24337;SDS011;12457;50.832;4.346;2022-08-19T12:14:11;6.53;;;4.43;;
24337;SDS011;12457;50.832;4.346;2022-08-19T12:16:39;7.85;;;3.78;;
24337;SDS011;12457;50.832;4.346;2022-08-19T12:19:06;6.32;;;4.40;;
24337;SDS011;12457;50.832;4.346;2022-08-19T12:21:33;6.88;;;5.07;;
24337;SDS011;12457;50.832;4.346;2022-08-19T12:24:00;11.07;;;4.15;;
24337;SDS011;12457;50.832;4.346;2022-08-19T12:26:28;5.35;;;4.00;;
24337;SDS011;12457;50.832;4.346;2022-08-19T12:29:02;7.07;;;4.63;;
24337;SDS011;12457;50.832;4.346;2022-08-19T12:31:38;7.35;;;4.43;;
24337;SDS011;12457;50.832;4.346;2022-08-19T12:34:04;10.15;;;4.80;;
24337;SDS011;12457;50.832;4.346;2022-08-19T12:36:30;5.78;;;3.80;;
24337;SDS011;12457;50.832;4.346;2022-08-19T12:38:57;4.50;;;3.22;;
24337;SDS011;12457;50.832;4.346;2022-08-19T12:41:24;8.05;;;2.90;;
24337;SDS011;12457;50.832;4.346;2022-08-19T12:43:53;6.85;;;3.28;;
24337;SDS011;12457;50.832;4.346;2022-08-19T12:46:19;5.25;;;3.67;;
24337;SDS011;12457;50.832;4.346;2022-08-19T12:48:48;9.20;;;5.43;;
24337;SDS011;12457;50.832;4.346;2022-08-19T12:51:17;8.45;;;4.72;;
24337;SDS011;12457;50.832;4.346;2022-08-19T12:53:46;9.48;;;4.90;;
24337;SDS011;12457;50.832;4.346;2022-08-19T12:56:12;3.90;;;3.13;;
24337;SDS011;12457;50.832;4.346;2022-08-19T12:58:39;5.60;;;2.40;;
24337;SDS011;12457;50.832;4.346;2022-08-19T13:01:07;3.53;;;2.03;;
24337;SDS011;12457;50.832;4.346;2022-08-19T13:03:49;5.35;;;2.53;;
24337;SDS011;12457;50.832;4.346;2022-08-19T13:06:17;3.78;;;2.40;;
24337;SDS011;12457;50.832;4.346;2022-08-19T13:08:43;3.70;;;2.28;;
24337;SDS011;12457;50.832;4.346;2022-08-19T13:11:10;5.75;;;1.90;;
24337;SDS011;12457;50.832;4.346;2022-08-19T13:13:41;3.08;;;1.92;;
24337;SDS011;12457;50.832;4.346;2022-08-19T13:16:09;6.70;;;2.20;;
24337;SDS011;12457;50.832;4.346;2022-08-19T13:18:38;5.35;;;2.00;;
24337;SDS011;12457;50.832;4.346;2022-08-19T13:21:09;3.15;;;1.90;;
24337;SDS011;12457;50.832;4.346;2022-08-19T13:23:38;5.07;;;2.17;;
24337;SDS011;12457;50.832;4.346;2022-08-19T13:26:05;5.05;;;2.03;;
24337;SDS011;12457;50.832;4.346;2022-08-19T13:28:33;4.72;;;1.80;;
24337;SDS011;12457;50.832;4.346;2022-08-19T13:31:19;4.85;;;2.60;;
24337;SDS011;12457;50.832;4.346;2022-08-19T13:34:15;6.05;;;2.15;;
24337;SDS011;12457;50.832;4.346;2022-08-19T13:36:42;5.03;;;1.90;;
24337;SDS011;12457;50.832;4.346;2022-08-19T13:39:08;6.72;;;1.98;;
24337;SDS011;12457;50.832;4.346;2022-08-19T13:41:35;4.13;;;1.85;;
24337;SDS011;12457;50.832;4.346;2022-08-19T13:44:01;4.57;;;2.35;;
24337;SDS011;12457;50.832;4.346;2022-08-19T13:46:33;4.78;;;2.20;;
24337;SDS011;12457;50.832;4.346;2022-08-19T13:48:59;7.07;;;2.20;;
24337;SDS011;12457;50.832;4.346;2022-08-19T13:51:30;3.65;;;2.20;;
24337;SDS011;12457;50.832;4.346;2022-08-19T13:54:03;7.65;;;1.88;;
24337;SDS011;12457;50.832;4.346;2022-08-19T13:56:39;3.33;;;1.90;;
24337;SDS011;12457;50.832;4.346;2022-08-19T13:59:20;4.70;;;1.90;;
24337;SDS011;12457;50.832;4.346;2022-08-19T14:01:48;2.85;;;1.65;;
24337;SDS011;12457;50.832;4.346;2022-08-19T14:04:23;4.22;;;1.95;;
24337;SDS011;12457;50.832;4.346;2022-08-19T14:06:51;5.55;;;2.45;;
24337;SDS011;12457;50.832;4.346;2022-08-19T14:09:23;4.20;;;2.80;;
24337;SDS011;12457;50.832;4.346;2022-08-19T14:11:57;8.75;;;2.63;;
24337;SDS011;12457;50.832;4.346;2022-08-19T14:14:37;5.38;;;2.83;;
24337;SDS011;12457;50.832;4.346;2022-08-19T14:17:07;4.78;;;2.70;;
24337;SDS011;12457;50.832;4.346;2022-08-19T14:19:39;5.57;;;2.35;;
24337;SDS011;12457;50.832;4.346;2022-08-19T14:22:34;4.55;;;2.55;;
24337;SDS011;12457;50.832;4.346;2022-08-19T14:25:04;4.22;;;1.90;;
24337;SDS011;12457;50.832;4.346;2022-08-19T14:27:40;7.07;;;2.20;;
24337;SDS011;12457;50.832;4.346;2022-08-19T14:30:14;3.78;;;2.15;;
24337;SDS011;12457;50.832;4.346;2022-08-19T14:32:42;2.83;;;1.80;;
24337;SDS011;12457;50.832;4.346;2022-08-19T14:35:08;2.63;;;1.45;;
24337;SDS011;12457;50.832;4.346;2022-08-19T14:37:39;3.60;;;1.40;;
24337;SDS011;12457;50.832;4.346;2022-08-19T14:40:12;5.47;;;1.48;;
24337;SDS011;12457;50.832;4.346;2022-08-19T14:42:40;3.63;;;1.40;;
24337;SDS011;12457;50.832;4.346;2022-08-19T14:45:10;2.80;;;1.30;;
24337;SDS011;12457;50.832;4.346;2022-08-19T14:47:37;3.13;;;1.30;;
24337;SDS011;12457;50.832;4.346;2022-08-19T14:50:12;3.47;;;1.40;;
24337;SDS011;12457;50.832;4.346;2022-08-19T14:52:42;2.30;;;0.88;;
24337;SDS011;12457;50.832;4.346;2022-08-19T14:55:11;3.60;;;1.40;;
24337;SDS011;12457;50.832;4.346;2022-08-19T14:57:49;4.07;;;2.17;;
24337;SDS011;12457;50.832;4.346;2022-08-19T15:00:30;1.77;;;1.40;;
24337;SDS011;12457;50.832;4.346;2022-08-19T15:03:01;2.55;;;1.83;;
24337;SDS011;12457;50.832;4.346;2022-08-19T15:05:28;4.68;;;1.75;;